Flight Track Log - Related Links

Times and Time Zones

All times are in EDT time to prevent confusion due to time zone crossing. See the SWA1707 flight status page for this flight to view local times or setup timezone preferences in your user account.

Time Position Orientation Groundspeed Altitude Reporting Facility
EDT Latitude Longitude Course Direction KTS MPH feet Rate Location/Type
Fri 06:37:19 PM 36.1000 -86.6833 219° Southwest 146 168 1,900  Level Nashville TRACON
Fri 06:38:26 PM 36.0500 -86.7333 219° Southwest 213 245 3,900 1,512 Climbing Nashville TRACON
Fri 06:39:26 PM 36.0000 -86.8000 227° Southwest 261 300 5,100 2,368 Climbing Nashville TRACON
Fri 06:40:20 PM 35.9500 -86.8500 219° Southwest 256 295 8,400 3,176 Climbing Nashville TRACON
Fri 06:41:08 PM 35.9164 -86.8969 229° Southwest 266 306 10,500 2,778 Climbing Memphis Center
Fri 06:42:08 PM 35.8600 -86.9658 225° Southwest 282 325 13,400 2,550 Climbing Memphis Center
Fri 06:43:08 PM 35.7972 -87.0375 223° Southwest 302 348 15,600 2,400 Climbing Memphis Center
Fri 06:44:08 PM 35.7217 -87.1019 215° Southwest 325 374 18,200 2,400 Climbing Memphis Center
Fri 06:45:08 PM 35.6400 -87.1664 213° Southwest 350 403 20,400 2,250 Climbing Memphis Center
Fri 06:46:08 PM 35.5478 -87.2311 210° Southwest 350 403 22,700 2,050 Climbing Memphis Center
Fri 06:47:08 PM 35.4575 -87.2881 207° Southwest 362 417 24,500 1,850 Climbing Memphis Center
Fri 06:48:08 PM 35.3731 -87.3397 207° Southwest 368 423 26,400 2,000 Climbing Memphis Center
Fri 06:49:08 PM 35.2828 -87.4014 209° Southwest 368 423 28,500 2,100 Climbing Memphis Center
Fri 06:50:08 PM 35.1925 -87.4581 207° Southwest 363 418 30,600 1,750 Climbing Memphis Center
Fri 06:51:08 PM 35.0897 -87.5225 207° Southwest 363 418 32,000 1,200 Climbing Memphis Center
Fri 06:52:08 PM 34.9928 -87.5789 205° Southwest 375 432 33,000 1,400 Climbing Memphis Center
Fri 06:53:08 PM 34.8936 -87.6253 201° Southwest 382 440 34,800 1,500 Climbing Memphis Center
Fri 06:54:08 PM 34.8111 -87.6658 202° Southwest 371 427 36,000 600 Climbing Memphis Center
Fri 06:55:08 PM 34.7119 -87.7119 201° Southwest 366 421 36,000  Level Memphis Center
Fri 06:56:08 PM 34.6128 -87.7606 202° Southwest 382 440 36,000  Level Memphis Center
Fri 06:57:08 PM 34.5178 -87.8036 200° South 377 434 36,000  Level Memphis Center
Fri 06:58:08 PM 34.4186 -87.8519 202° Southwest 377 434 36,000  Level Memphis Center
Fri 06:59:08 PM 34.3172 -87.9003 201° Southwest 369 425 36,000  Level Memphis Center
Fri 07:00:08 PM 34.2203 -87.9458 201° Southwest 369 425 36,000  Level Memphis Center
Fri 07:01:08 PM 34.1231 -87.9911 201° Southwest 370 426 36,000  Level Memphis Center
Fri 07:02:08 PM 34.0278 -88.0364 201° Southwest 370 426 36,000  Level Memphis Center
Fri 07:03:08 PM 33.9286 -88.0842 202° Southwest 370 426 36,000  Level Memphis Center
Fri 07:04:08 PM 33.8314 -88.1317 202° Southwest 377 434 36,000  Level Memphis Center
Fri 07:05:08 PM 33.7342 -88.1792 202° Southwest 377 434 36,000  Level Memphis Center
Fri 07:06:08 PM 33.6367 -88.2239 201° Southwest 382 440 36,000  Level Memphis Center
Fri 07:07:08 PM 33.5375 -88.2736 203° Southwest 382 440 36,000  Level Memphis Center
Fri 07:08:08 PM 33.4525 -88.3131 201° Southwest 382 440 36,000  Level Memphis Center
Fri 07:09:08 PM 33.3531 -88.3578 201° Southwest 377 434 36,000  Level Memphis Center
Fri 07:10:08 PM 33.2578 -88.4022 201° Southwest 377 434 36,000  Level Memphis Center
Fri 07:11:08 PM 33.1622 -88.4464 201° Southwest 377 434 36,000  Level Memphis Center
Fri 07:12:08 PM 33.0692 -88.4956 204° Southwest 372 428 36,000  Level Memphis Center
Fri 07:13:08 PM 32.9803 -88.5569 210° Southwest 377 434 36,000  Level Memphis Center
Fri 07:14:08 PM 32.9019 -88.6303 218° Southwest 377 434 36,000  Level Memphis Center
Fri 07:15:08 PM 32.8322 -88.7181 227° Southwest 364 419 36,000  Level Memphis Center
Fri 07:16:08 PM 32.7433 -88.7742 208° Southwest 369 425 36,000  Level Memphis Center
Fri 07:17:08 PM 32.6542 -88.8350 210° Southwest 369 425 36,000  Level Memphis Center
Fri 07:18:08 PM 32.5631 -88.8931 208° Southwest 369 425 36,000  Level Memphis Center
Fri 07:19:08 PM 32.4719 -88.9561 210° Southwest 375 432 36,000  Level Memphis Center
Fri 07:20:08 PM 32.3786 -89.0167 209° Southwest 375 432 36,000  Level Memphis Center
Fri 07:21:08 PM 32.2853 -89.0769 209° Southwest 375 432 36,000  Level Memphis Center
Fri 07:22:08 PM 32.1961 -89.1372 210° Southwest 375 432 36,000  Level Memphis Center
Fri 07:23:08 PM 32.1028 -89.1972 209° Southwest 375 432 36,000  Level Memphis Center
Fri 07:24:08 PM 32.0094 -89.2597 210° Southwest 375 432 36,000 -250 Level Memphis Center
Fri 07:25:08 PM 31.9139 -89.3197 208° Southwest 380 437 35,500 -1,888 Descending Memphis Center
Fri 07:27:06 PM 31.7417 -89.4319 209° Southwest 373 429 30,400 -2,500 Descending Houston Center
Fri 07:28:08 PM 31.6378 -89.5011 210° Southwest 359 413 28,000 -1,355 Descending Houston Center
Fri 07:29:10 PM 31.5653 -89.5467 208° Southwest 350 403 27,600 -726 Descending Houston Center
Fri 07:30:12 PM 31.4619 -89.6150 209° Southwest 359 413 26,500 -968 Descending Houston Center
Fri 07:31:14 PM 31.3692 -89.6731 208° Southwest 375 432 25,600 -919 Descending Houston Center
Fri 07:32:16 PM 31.2778 -89.7333 209° Southwest 379 436 24,600 -968 Descending Houston Center
Fri 07:33:18 PM 31.1869 -89.7903 208° Southwest 373 429 23,600 -976 Descending Houston Center
Fri 07:34:19 PM 31.0983 -89.8469 209° Southwest 367 422 22,600 -927 Descending Houston Center
Fri 07:35:21 PM 31.0111 -89.9028 209° Southwest 361 415 21,700 -1,452 Descending Houston Center
Fri 07:36:23 PM 30.9061 -89.9703 209° Southwest 358 412 19,600 -2,065 Descending Houston Center
Fri 07:36:54 PM 30.8625 -89.9978 208° Southwest 348 400 18,500 -2,073 Descending Houston Center
Fri 07:37:18 PM 30.8317 -90.0183 210° Southwest 341 392 17,700 -2,000 Descending Houston Center
Fri 07:38:27 PM 30.7419 -90.0681 205° Southwest 333 383 15,400 -2,107 Descending Houston Center
Fri 07:39:29 PM 30.6494 -90.0783 185° South 337 388 13,100 -2,177 Descending Houston Center
Fri 07:40:20 PM 30.5644 -90.0900 187° South 328 377 11,300 -1,607 Descending Houston Center
Fri 07:41:21 PM 30.4772 -90.1033 188° South 313 360 10,100 -1,289 Descending Houston Center
Fri 07:42:35 PM 30.3839 -90.1156 186° South 284 327 8,400 -1,412 Descending Houston Center
Fri 07:43:37 PM 30.3100 -90.1292 189° South 274 315 6,900 -1,500 Descending Houston Center
Fri 07:44:23 PM 30.2461 -90.1300 181° South 269 310 5,700 -1,452 Descending Houston Center
Fri 07:44:39 PM 30.2375 -90.1269 163° South 277 319 5,400 -1,800 Descending Houston Center
Fri 07:45:23 PM 30.1722 -90.1114 168° South 270 311 3,900 -1,742 Descending Houston Center
Fri 07:45:41 PM 30.1639 -90.1092 167° South 274 315 3,600 -885 Descending Houston Center
Fri 07:46:24 PM 30.0922 -90.0931 169° South 286 329 3,000 -677 Descending Houston Center
Fri 07:46:43 PM 30.0706 -90.0886 170° South 280 322 2,900  Descending Houston Center
Fri 07:47:25 PM 30.0247 -90.0742 165° South 244 281 3,000 97 Climbing Houston Center
Fri 07:47:45 PM 30.0178 -90.0533 111° Southeast 264 304 3,000  Level Houston Center
Fri 07:48:25 PM 29.9975 -90.0081 117° Southeast 233 268 3,000  Level Houston Center
Fri 07:48:47 PM 29.9792 -90.0042 170° South 255 293 3,000  Level Houston Center
Fri 07:49:26 PM 29.9331 -90.0181 195° South 240 276 3,000  Level Houston Center
Fri 07:49:48 PM 29.9275 -90.0364 251° West 244 281 3,000  Level Houston Center
Fri 07:50:33 PM 29.9456 -90.0800 296° West 184 212 3,000 -97 Level Houston Center
Fri 07:50:50 PM 29.9511 -90.0906 301° West 211 243 2,900 -982 Descending Houston Center
Fri 07:51:28 PM 29.9597 -90.1272 285° West 161 185 2,100 -1,065 Descending Houston Center
Fri 07:51:52 PM 29.9636 -90.1417 287° West 184 212 1,800 -800 Descending Houston Center
Fri 07:52:28 PM 29.9717 -90.1772 285° West 162 186 1,300 -677 Descending Houston Center
Fri 07:52:54 PM 29.9750 -90.1906 286° West 170 196 1,100 -590 Descending Houston Center
Fri 07:53:29 PM 29.9811 -90.2178 285° West 125 144 700 -677 Descending Houston Center
Fri 07:53:56 PM 29.9858 -90.2306 293° West 153 176 400 -667 Descending Houston Center

Login

Don't have an account? Register now (free) for customized features, flight alerts, and more!